Terminal Aerodrome Forecast
Issued by NWS Shreveport, LA

Home | Current Version | Previous Version | Text Only | Print | Product List | Glossary On
Versions: 1 2 3 4 5 6 7 8 9 10 11 12
000
FTUS44 KSHV 021726
TAFGGG
TAF
KGGG 021726Z 0218/0318 10008KT P6SM SCT070 OVC250
     FM030300 06006KT 6SM -RA OVC050
     FM031000 08008KT 5SM RA OVC010=

USA.gov is the U.S. government's official web portal to all federal, state and local government web resources and services.